createdAt,value
2022-07-26T00:00:21.148Z,59.79
2022-07-26T00:03:18.610Z,59.91
2022-07-26T00:06:16.044Z,59.99
2022-07-26T00:09:16.358Z,60.08
2022-07-26T00:12:13.843Z,60.27
2022-07-26T00:15:11.294Z,60.23
2022-07-26T00:18:12.022Z,60.41
2022-07-26T00:21:09.983Z,60.47
2022-07-26T00:24:09.249Z,60.49
2022-07-26T00:27:06.719Z,60.54
2022-07-26T00:30:04.204Z,60.58
2022-07-26T00:33:01.688Z,60.69
2022-07-26T00:35:59.160Z,60.75
2022-07-26T00:38:56.605Z,60.89
2022-07-26T00:41:54.062Z,60.91
2022-07-26T00:44:51.524Z,61.08
2022-07-26T00:47:48.969Z,61.17
2022-07-26T00:50:46.451Z,61.39
2022-07-26T00:53:43.910Z,61.59
2022-07-26T00:56:41.423Z,60.63
2022-07-26T00:59:38.889Z,59.58
2022-07-26T01:02:36.361Z,59.34
2022-07-26T01:05:33.970Z,58.65
2022-07-26T01:08:31.421Z,58.27
2022-07-26T01:11:28.869Z,57.64
2022-07-26T01:14:26.350Z,57.13
2022-07-26T01:17:23.904Z,56.67
2022-07-26T01:20:21.378Z,56.44
2022-07-26T01:23:18.854Z,56.46
2022-07-26T01:26:16.304Z,57.06
2022-07-26T01:29:13.793Z,57.73
2022-07-26T01:32:11.266Z,58.67
2022-07-26T01:35:08.746Z,59.25
2022-07-26T01:38:06.257Z,59.89
2022-07-26T01:41:03.706Z,60.09
2022-07-26T01:44:01.152Z,60.59
2022-07-26T01:46:58.597Z,60.84
2022-07-26T01:49:56.081Z,61.05
2022-07-26T01:52:53.555Z,61.19
2022-07-26T01:55:51.010Z,61.69
2022-07-26T01:58:48.460Z,61.97
2022-07-26T02:01:45.932Z,62.28
2022-07-26T02:05:02.125Z,62.32
2022-07-26T02:07:59.594Z,62.59
2022-07-26T02:11:04.007Z,63.07
2022-07-26T02:14:01.743Z,63.93
2022-07-26T02:17:00.811Z,64.23
2022-07-26T02:19:58.285Z,65.53
2022-07-26T02:22:55.738Z,66.27
2022-07-26T02:25:53.179Z,67.78
2022-07-26T02:28:50.661Z,68.47
2022-07-26T02:31:48.407Z,68.58
2022-07-26T02:34:46.836Z,69.61
2022-07-26T02:37:44.335Z,70.22
2022-07-26T02:40:41.805Z,70.31
2022-07-26T02:43:39.267Z,71.34
2022-07-26T02:46:37.583Z,72.07
2022-07-26T02:49:35.114Z,73.05
2022-07-26T02:52:32.554Z,72.71
2022-07-26T02:55:30.036Z,73.34
2022-07-26T02:58:28.166Z,73.63
2022-07-26T03:01:25.743Z,73.82
2022-07-26T03:04:23.729Z,74.99
2022-07-26T03:07:21.197Z,74.86
2022-07-26T03:10:18.648Z,75.34
2022-07-26T03:13:16.442Z,75.03
2022-07-26T03:16:14.000Z,75.14
2022-07-26T03:19:11.574Z,75.54
2022-07-26T03:22:09.070Z,75.24
2022-07-26T03:25:06.680Z,75.66
2022-07-26T03:28:04.117Z,76.30
2022-07-26T03:31:01.679Z,76.07
2022-07-26T03:34:03.095Z,76.65
2022-07-26T03:37:00.961Z,76.18
2022-07-26T03:39:58.440Z,77.60
2022-07-26T03:42:57.271Z,77.26
2022-07-26T03:45:54.874Z,76.87
2022-07-26T03:48:52.537Z,76.77
2022-07-26T03:51:50.045Z,77.83
2022-07-26T03:54:47.498Z,77.53
2022-07-26T03:57:44.962Z,77.32
2022-07-26T04:00:42.428Z,77.60
2022-07-26T04:03:42.197Z,77.65
2022-07-26T04:06:44.951Z,77.63
2022-07-26T04:09:42.375Z,77.75
2022-07-26T04:12:39.873Z,78.19
2022-07-26T04:15:37.348Z,78.01
2022-07-26T04:18:34.804Z,78.14
2022-07-26T04:21:32.241Z,78.29
2022-07-26T04:24:29.701Z,77.97
2022-07-26T04:27:27.183Z,77.76
2022-07-26T04:30:27.304Z,77.40
2022-07-26T04:33:24.929Z,78.13
2022-07-26T04:36:22.384Z,77.64
2022-07-26T04:39:24.601Z,78.04
2022-07-26T04:42:22.056Z,77.45
2022-07-26T04:45:19.503Z,78.31
2022-07-26T04:48:16.988Z,77.82
2022-07-26T04:51:14.452Z,77.54
2022-07-26T04:54:12.003Z,77.68
2022-07-26T04:57:09.501Z,77.37
2022-07-26T05:00:23.300Z,77.05
2022-07-26T05:03:25.227Z,77.37
2022-07-26T05:06:22.831Z,77.28
2022-07-26T05:09:21.562Z,77.02
2022-07-26T05:12:19.041Z,77.46
2022-07-26T05:15:16.501Z,76.59
2022-07-26T05:18:13.961Z,77.14
2022-07-26T05:21:11.724Z,77.27
2022-07-26T05:24:09.569Z,77.26
2022-07-26T05:27:07.488Z,77.70
2022-07-26T05:30:04.925Z,77.54
2022-07-26T05:33:02.385Z,77.78
2022-07-26T05:35:59.851Z,77.84
2022-07-26T05:38:57.299Z,77.62
2022-07-26T05:41:54.756Z,77.96
2022-07-26T05:44:52.189Z,78.00
2022-07-26T05:47:49.958Z,77.92
2022-07-26T05:50:47.415Z,78.07
2022-07-26T05:53:47.477Z,78.52
2022-07-26T05:56:44.931Z,78.70
2022-07-26T05:59:42.360Z,78.13
2022-07-26T06:02:39.828Z,78.37
2022-07-26T06:05:37.343Z,78.74
2022-07-26T06:08:34.795Z,79.59
2022-07-26T06:11:32.317Z,79.38
2022-07-26T06:14:29.769Z,79.27
2022-07-26T06:17:30.480Z,79.40
2022-07-26T06:20:28.073Z,79.20
2022-07-26T06:23:33.821Z,79.53
2022-07-26T06:26:32.630Z,79.68
2022-07-26T06:29:32.369Z,79.95
2022-07-26T06:32:30.203Z,80.17
2022-07-26T06:35:31.107Z,80.18
2022-07-26T06:38:28.610Z,80.46
2022-07-26T06:41:26.076Z,79.98
2022-07-26T06:44:23.941Z,80.01
2022-07-26T06:47:21.435Z,80.02
2022-07-26T06:50:20.838Z,80.46
2022-07-26T06:53:23.240Z,80.14
2022-07-26T06:56:20.686Z,80.14
2022-07-26T06:59:21.477Z,79.59
2022-07-26T07:02:18.970Z,80.04
2022-07-26T07:05:16.607Z,79.79
2022-07-26T07:08:14.159Z,79.59
2022-07-26T07:11:11.914Z,79.54
2022-07-26T07:14:10.018Z,78.66
2022-07-26T07:17:11.080Z,78.55
2022-07-26T07:20:11.562Z,78.60
2022-07-26T07:23:09.189Z,77.91
2022-07-26T07:26:06.673Z,77.79
2022-07-26T07:29:04.369Z,77.04
2022-07-26T07:32:03.437Z,76.47
2022-07-26T07:35:01.285Z,75.93
2022-07-26T07:37:58.762Z,75.38
2022-07-26T07:40:56.243Z,75.26
2022-07-26T07:43:53.730Z,75.50
2022-07-26T07:46:51.234Z,75.12
2022-07-26T07:49:48.786Z,75.08
2022-07-26T07:52:46.248Z,75.07
2022-07-26T07:55:46.269Z,75.10
2022-07-26T07:58:44.393Z,75.11
2022-07-26T08:01:42.530Z,74.95
2022-07-26T08:04:42.749Z,75.03
2022-07-26T08:07:40.194Z,75.39
2022-07-26T08:10:41.739Z,75.40
2022-07-26T08:13:49.162Z,75.27
2022-07-26T08:16:46.815Z,75.37
2022-07-26T08:19:44.476Z,75.56
2022-07-26T08:22:41.947Z,75.36
2022-07-26T08:25:50.099Z,75.63
2022-07-26T08:28:58.315Z,75.42
2022-07-26T08:31:57.747Z,76.03
2022-07-26T08:34:55.265Z,75.66
2022-07-26T08:38:12.664Z,75.58
2022-07-26T08:41:10.148Z,76.08
2022-07-26T08:44:07.607Z,76.18
2022-07-26T08:47:05.166Z,76.39
2022-07-26T08:50:02.707Z,76.54
2022-07-26T08:53:00.175Z,76.90
2022-07-26T08:56:07.026Z,76.43
2022-07-26T08:59:05.208Z,76.46
2022-07-26T09:02:02.961Z,76.38
2022-07-26T09:05:00.402Z,76.23
2022-07-26T09:07:57.889Z,75.74
2022-07-26T09:10:55.705Z,75.67
2022-07-26T09:13:53.199Z,75.92
2022-07-26T09:16:50.806Z,75.66
2022-07-26T09:19:48.316Z,75.53
2022-07-26T09:22:45.816Z,75.64
2022-07-26T09:25:43.369Z,75.47
2022-07-26T09:28:45.015Z,75.17
2022-07-26T09:31:44.643Z,75.12
2022-07-26T09:34:52.079Z,75.21
2022-07-26T09:37:50.426Z,75.22
2022-07-26T09:40:51.324Z,75.62
2022-07-26T09:43:53.650Z,75.27
2022-07-26T09:46:51.841Z,74.95
2022-07-26T09:49:49.476Z,74.67
2022-07-26T09:52:46.995Z,74.37
2022-07-26T09:55:45.162Z,73.84
2022-07-26T09:58:42.886Z,73.59
2022-07-26T10:01:40.427Z,73.40
2022-07-26T10:04:37.890Z,73.09
2022-07-26T10:07:35.363Z,73.06
2022-07-26T10:10:32.834Z,73.02
2022-07-26T10:13:30.530Z,72.41
2022-07-26T10:16:28.148Z,71.90
2022-07-26T10:19:26.963Z,71.46
2022-07-26T10:22:30.661Z,71.37
2022-07-26T10:25:28.152Z,70.91
2022-07-26T10:28:26.823Z,70.66
2022-07-26T10:31:24.421Z,70.21
2022-07-26T10:34:21.990Z,70.30
2022-07-26T10:37:19.461Z,69.56
2022-07-26T10:40:16.930Z,69.02
2022-07-26T10:43:39.515Z,68.98
2022-07-26T10:46:32.202Z,68.61
2022-07-26T10:49:29.723Z,68.36
2022-07-26T10:52:27.509Z,68.13
2022-07-26T10:55:24.967Z,67.79
2022-07-26T10:58:22.455Z,67.72
2022-07-26T11:01:20.004Z,67.38
2022-07-26T11:04:17.504Z,66.81
2022-07-26T11:07:14.957Z,66.29
2022-07-26T11:10:12.450Z,65.66
2022-07-26T11:13:09.922Z,64.98
2022-07-26T11:16:07.469Z,64.20
2022-07-26T11:19:04.993Z,64.20
2022-07-26T11:22:02.455Z,62.87
2022-07-26T11:24:59.971Z,61.88
2022-07-26T11:27:57.457Z,61.81
2022-07-26T11:30:56.096Z,60.78
2022-07-26T11:33:53.681Z,60.41
2022-07-26T11:36:51.212Z,60.24
2022-07-26T11:39:48.706Z,59.48
2022-07-26T11:42:46.166Z,58.58
2022-07-26T11:45:43.641Z,57.85
2022-07-26T11:48:41.240Z,57.52
2022-07-26T11:51:38.766Z,55.89
2022-07-26T11:54:36.619Z,55.42
2022-07-26T11:57:34.194Z,54.33
2022-07-26T12:00:31.673Z,53.10
2022-07-26T12:03:29.782Z,52.83
2022-07-26T12:06:27.489Z,53.04
2022-07-26T12:09:24.981Z,52.17
2022-07-26T12:12:23.640Z,51.70
2022-07-26T12:15:21.130Z,50.15
2022-07-26T12:18:18.574Z,48.75
2022-07-26T12:21:16.051Z,47.69
2022-07-26T12:24:13.855Z,47.36
2022-07-26T12:27:11.522Z,46.06
2022-07-26T12:30:09.022Z,45.30
2022-07-26T12:33:06.534Z,45.21
2022-07-26T12:36:04.021Z,44.75
2022-07-26T12:39:01.519Z,44.57
2022-07-26T12:41:59.042Z,44.48
2022-07-26T12:44:56.533Z,44.14
2022-07-26T12:47:54.022Z,43.55
2022-07-26T12:50:51.490Z,43.86
2022-07-26T12:53:48.948Z,44.22
2022-07-26T12:56:46.578Z,45.12
2022-07-26T12:59:46.309Z,45.95
2022-07-26T13:02:43.794Z,46.67
2022-07-26T13:05:41.274Z,48.26
2022-07-26T13:08:38.764Z,50.42
2022-07-26T13:11:36.256Z,52.47
2022-07-26T13:14:33.735Z,53.83
2022-07-26T13:17:31.211Z,55.83
2022-07-26T13:20:28.710Z,58.44
2022-07-26T13:23:26.825Z,59.41
2022-07-26T13:26:24.521Z,61.10
2022-07-26T13:29:22.373Z,62.27
2022-07-26T13:32:19.967Z,63.38
2022-07-26T13:35:17.915Z,64.70
2022-07-26T13:38:15.397Z,65.28
2022-07-26T13:41:12.868Z,66.29
2022-07-26T13:44:10.497Z,66.20
2022-07-26T13:47:09.308Z,67.15
2022-07-26T13:50:08.465Z,67.70
2022-07-26T13:53:05.923Z,68.19
2022-07-26T13:56:03.393Z,68.82
2022-07-26T13:59:00.829Z,68.84
2022-07-26T14:01:58.450Z,69.19
2022-07-26T14:04:56.118Z,69.39
2022-07-26T14:07:53.572Z,69.97
2022-07-26T14:10:51.046Z,70.13
2022-07-26T14:13:48.538Z,70.37
2022-07-26T14:16:49.353Z,70.28
2022-07-26T14:19:47.096Z,70.65
2022-07-26T14:22:44.590Z,71.58
2022-07-26T14:25:42.285Z,71.72
2022-07-26T14:28:39.767Z,72.06
2022-07-26T14:31:37.277Z,72.11
2022-07-26T14:34:34.774Z,72.09
2022-07-26T14:37:42.402Z,71.82
2022-07-26T14:40:42.234Z,72.14
2022-07-26T14:43:39.731Z,72.87
2022-07-26T14:46:37.210Z,73.28
2022-07-26T14:49:34.784Z,73.54
2022-07-26T14:52:32.330Z,73.63
2022-07-26T14:55:29.922Z,73.64
2022-07-26T14:58:27.434Z,73.67
2022-07-26T15:01:24.952Z,74.47
2022-07-26T15:04:24.878Z,74.36
2022-07-26T15:07:22.383Z,74.43
2022-07-26T15:10:29.295Z,74.64
2022-07-26T15:13:26.784Z,74.46
2022-07-26T15:16:24.345Z,74.70
2022-07-26T15:19:25.688Z,74.60
2022-07-26T15:22:23.621Z,75.01
2022-07-26T15:25:21.128Z,75.03
2022-07-26T15:28:18.625Z,75.16
2022-07-26T15:31:16.240Z,75.75
2022-07-26T15:34:14.129Z,75.87
2022-07-26T15:37:11.834Z,75.75
2022-07-26T15:40:09.336Z,75.48
2022-07-26T15:43:06.827Z,76.17
2022-07-26T15:46:04.750Z,76.22
2022-07-26T15:49:02.972Z,76.97
2022-07-26T15:52:00.557Z,76.60
2022-07-26T15:54:58.071Z,76.93
2022-07-26T15:57:55.544Z,76.82
2022-07-26T16:00:53.023Z,77.29
2022-07-26T16:03:50.498Z,77.18
2022-07-26T16:06:48.255Z,76.90
2022-07-26T16:09:45.750Z,77.32
2022-07-26T16:12:43.253Z,77.35
2022-07-26T16:15:40.830Z,77.64
2022-07-26T16:18:41.829Z,77.55
2022-07-26T16:21:40.623Z,77.76
2022-07-26T16:24:38.118Z,77.95
2022-07-26T16:27:35.628Z,78.13
2022-07-26T16:30:33.144Z,78.51
2022-07-26T16:33:30.768Z,78.08
2022-07-26T16:36:30.458Z,78.00
2022-07-26T16:39:27.990Z,78.50
2022-07-26T16:42:25.502Z,78.56
2022-07-26T16:45:23.000Z,78.85
2022-07-26T16:48:20.527Z,78.98
2022-07-26T16:51:18.018Z,79.23
2022-07-26T16:54:15.492Z,78.61
2022-07-26T16:57:12.952Z,78.43
2022-07-26T17:00:10.875Z,77.88
2022-07-26T17:03:08.356Z,78.02
2022-07-26T17:06:07.125Z,77.75
2022-07-26T17:09:04.631Z,77.57
2022-07-26T17:12:06.387Z,77.98
2022-07-26T17:15:04.375Z,77.59
2022-07-26T17:18:01.840Z,77.65
2022-07-26T17:20:59.365Z,77.69
2022-07-26T17:23:56.835Z,77.56
2022-07-26T17:26:54.321Z,77.53
2022-07-26T17:29:53.250Z,77.93
2022-07-26T17:32:50.757Z,78.15
2022-07-26T17:35:48.765Z,78.13
2022-07-26T17:38:46.885Z,78.26
2022-07-26T17:41:49.209Z,78.35
2022-07-26T17:44:46.703Z,78.45
2022-07-26T17:47:44.268Z,78.53
2022-07-26T17:50:41.762Z,78.87
2022-07-26T17:53:39.218Z,78.73
2022-07-26T17:56:36.701Z,78.84
2022-07-26T17:59:34.166Z,78.85
2022-07-26T18:02:33.611Z,78.93
2022-07-26T18:05:35.093Z,79.21
2022-07-26T18:08:34.592Z,79.66
2022-07-26T18:11:32.039Z,79.87
2022-07-26T18:14:29.508Z,79.72
2022-07-26T18:17:26.985Z,79.79
2022-07-26T18:20:24.532Z,79.89
2022-07-26T18:23:22.193Z,79.87
2022-07-26T18:26:19.988Z,80.07
2022-07-26T18:29:17.457Z,80.44
2022-07-26T18:32:15.438Z,80.56
2022-07-26T18:35:12.896Z,81.05
2022-07-26T18:38:10.388Z,81.48
2022-07-26T18:41:07.876Z,81.67
2022-07-26T18:44:05.364Z,81.47
2022-07-26T18:47:02.911Z,81.73
2022-07-26T18:50:00.412Z,81.85
2022-07-26T18:52:59.388Z,82.10
2022-07-26T18:55:57.565Z,82.20
2022-07-26T18:58:55.076Z,82.19
2022-07-26T19:01:52.630Z,82.28
2022-07-26T19:04:50.205Z,82.15
2022-07-26T19:07:47.677Z,82.19
2022-07-26T19:10:45.135Z,82.28
2022-07-26T19:13:42.978Z,82.33
2022-07-26T19:16:40.465Z,82.28
2022-07-26T19:19:37.930Z,82.33
2022-07-26T19:22:35.430Z,82.44
2022-07-26T19:25:32.918Z,82.70
2022-07-26T19:28:30.403Z,82.53
2022-07-26T19:31:27.953Z,82.72
2022-07-26T19:34:26.901Z,82.79
2022-07-26T19:37:24.378Z,82.80
2022-07-26T19:40:21.952Z,82.95
2022-07-26T19:43:19.428Z,83.12
2022-07-26T19:46:19.207Z,83.04
2022-07-26T19:49:17.343Z,83.14
2022-07-26T19:52:15.006Z,83.30
2022-07-26T19:55:12.465Z,83.08
2022-07-26T19:58:09.951Z,83.20
2022-07-26T20:01:07.461Z,83.40
2022-07-26T20:04:04.984Z,83.47
2022-07-26T20:07:02.492Z,83.45
2022-07-26T20:09:59.974Z,83.45
2022-07-26T20:12:57.453Z,83.58
2022-07-26T20:15:54.944Z,83.69
2022-07-26T20:18:52.818Z,83.74
2022-07-26T20:21:50.328Z,83.80
2022-07-26T20:24:47.806Z,83.84
2022-07-26T20:27:48.324Z,83.87
2022-07-26T20:30:48.429Z,84.08
2022-07-26T20:33:46.088Z,84.07
2022-07-26T20:36:43.572Z,84.06
2022-07-26T20:39:41.057Z,84.14
2022-07-26T20:42:40.408Z,84.24
2022-07-26T20:45:39.525Z,84.35
2022-07-26T20:48:37.083Z,84.38
2022-07-26T20:51:34.570Z,84.44
2022-07-26T20:54:32.365Z,84.43
2022-07-26T20:57:29.858Z,84.47
2022-07-26T21:00:27.393Z,84.50
2022-07-26T21:03:24.898Z,84.55
2022-07-26T21:06:22.361Z,84.56
2022-07-26T21:09:27.067Z,84.45
2022-07-26T21:12:24.533Z,84.37
2022-07-26T21:15:22.023Z,84.38
2022-07-26T21:18:19.509Z,84.42
2022-07-26T21:21:17.239Z,84.22
2022-07-26T21:24:14.719Z,84.16
2022-07-26T21:27:12.182Z,84.21
2022-07-26T21:30:09.744Z,84.21
2022-07-26T21:33:08.061Z,84.03
2022-07-26T21:36:05.635Z,83.62
2022-07-26T21:39:03.107Z,83.80
2022-07-26T21:42:00.570Z,83.94
2022-07-26T21:44:58.077Z,83.86
2022-07-26T21:47:55.572Z,83.97
2022-07-26T21:50:53.062Z,83.90
2022-07-26T21:53:50.529Z,84.01
2022-07-26T21:56:48.407Z,84.12
2022-07-26T21:59:45.887Z,84.14
2022-07-26T22:02:43.410Z,84.16
2022-07-26T22:05:42.663Z,84.02
2022-07-26T22:08:40.208Z,83.86
2022-07-26T22:11:37.693Z,83.93
2022-07-26T22:14:35.193Z,84.10
2022-07-26T22:17:32.690Z,83.91
2022-07-26T22:20:31.949Z,83.76
2022-07-26T22:23:31.141Z,83.83
2022-07-26T22:26:31.297Z,83.88
2022-07-26T22:29:39.922Z,83.90
2022-07-26T22:32:37.791Z,83.80
2022-07-26T22:35:36.356Z,83.91
2022-07-26T22:38:34.250Z,83.93
2022-07-26T22:41:32.651Z,83.99
2022-07-26T22:44:31.430Z,83.88
2022-07-26T22:47:28.900Z,83.84
2022-07-26T22:50:26.408Z,83.88
2022-07-26T22:53:23.875Z,83.86
2022-07-26T22:56:21.383Z,83.83
2022-07-26T22:59:18.888Z,83.73
2022-07-26T23:02:16.358Z,83.84
2022-07-26T23:05:13.850Z,83.77
2022-07-26T23:08:36.607Z,83.88
2022-07-26T23:11:28.800Z,83.86
2022-07-26T23:14:29.353Z,83.78
2022-07-26T23:17:26.838Z,83.59
2022-07-26T23:20:24.366Z,83.50
2022-07-26T23:23:21.816Z,83.56
2022-07-26T23:26:19.278Z,83.62
2022-07-26T23:29:16.769Z,83.59
2022-07-26T23:32:14.262Z,83.58
2022-07-26T23:35:12.954Z,83.60
2022-07-26T23:38:10.406Z,83.75
2022-07-26T23:41:07.895Z,83.70
2022-07-26T23:44:05.373Z,83.81
2022-07-26T23:47:03.045Z,83.81
2022-07-26T23:50:00.689Z,83.59
2022-07-26T23:52:58.184Z,83.53
2022-07-26T23:55:55.680Z,83.61
2022-07-26T23:58:53.151Z,83.68
